sensor_id;sensor_type;location;lat;lon;timestamp;P1;durP1;ratioP1;P2;durP2;ratioP2
46561;SDS011;32289;42.688;23.330;2023-11-21T00:03:37;19.30;;;7.15;;
46561;SDS011;32289;42.688;23.330;2023-11-21T00:07:18;13.13;;;5.43;;
46561;SDS011;32289;42.688;23.330;2023-11-21T00:11:01;15.63;;;6.63;;
46561;SDS011;32289;42.688;23.330;2023-11-21T00:14:42;14.82;;;6.05;;
46561;SDS011;32289;42.688;23.330;2023-11-21T00:18:23;17.85;;;7.22;;
46561;SDS011;32289;42.688;23.330;2023-11-21T00:22:04;15.63;;;5.75;;
46561;SDS011;32289;42.688;23.330;2023-11-21T00:25:46;13.82;;;5.70;;
46561;SDS011;32289;42.688;23.330;2023-11-21T00:29:27;15.93;;;6.22;;
46561;SDS011;32289;42.688;23.330;2023-11-21T00:33:07;12.15;;;5.63;;
46561;SDS011;32289;42.688;23.330;2023-11-21T00:36:48;13.52;;;5.10;;
46561;SDS011;32289;42.688;23.330;2023-11-21T00:40:29;13.68;;;6.15;;
46561;SDS011;32289;42.688;23.330;2023-11-21T00:44:09;11.88;;;5.82;;
46561;SDS011;32289;42.688;23.330;2023-11-21T00:47:50;13.85;;;5.65;;
46561;SDS011;32289;42.688;23.330;2023-11-21T00:51:31;14.88;;;6.38;;
46561;SDS011;32289;42.688;23.330;2023-11-21T00:55:12;16.60;;;7.85;;
46561;SDS011;32289;42.688;23.330;2023-11-21T00:58:53;19.80;;;8.35;;
46561;SDS011;32289;42.688;23.330;2023-11-21T01:02:34;25.45;;;8.90;;
46561;SDS011;32289;42.688;23.330;2023-11-21T01:06:15;26.23;;;10.93;;
46561;SDS011;32289;42.688;23.330;2023-11-21T01:09:57;33.42;;;12.38;;
46561;SDS011;32289;42.688;23.330;2023-11-21T01:13:38;39.25;;;13.77;;
46561;SDS011;32289;42.688;23.330;2023-11-21T01:17:19;29.95;;;11.40;;
46561;SDS011;32289;42.688;23.330;2023-11-21T01:21:02;28.90;;;11.02;;
46561;SDS011;32289;42.688;23.330;2023-11-21T01:24:43;28.98;;;11.15;;
46561;SDS011;32289;42.688;23.330;2023-11-21T01:28:24;25.85;;;11.77;;
46561;SDS011;32289;42.688;23.330;2023-11-21T01:32:05;39.60;;;13.80;;
46561;SDS011;32289;42.688;23.330;2023-11-21T01:35:47;34.13;;;13.68;;
46561;SDS011;32289;42.688;23.330;2023-11-21T01:39:28;36.35;;;12.23;;
46561;SDS011;32289;42.688;23.330;2023-11-21T01:43:09;37.25;;;13.35;;
46561;SDS011;32289;42.688;23.330;2023-11-21T01:46:50;32.95;;;14.25;;
46561;SDS011;32289;42.688;23.330;2023-11-21T01:50:31;31.63;;;13.05;;
46561;SDS011;32289;42.688;23.330;2023-11-21T01:54:13;34.20;;;14.02;;
46561;SDS011;32289;42.688;23.330;2023-11-21T01:57:55;34.92;;;14.65;;
46561;SDS011;32289;42.688;23.330;2023-11-21T02:01:39;31.65;;;13.52;;
46561;SDS011;32289;42.688;23.330;2023-11-21T02:05:21;37.95;;;13.45;;
46561;SDS011;32289;42.688;23.330;2023-11-21T02:09:02;36.38;;;14.20;;
46561;SDS011;32289;42.688;23.330;2023-11-21T02:12:44;33.50;;;13.88;;
46561;SDS011;32289;42.688;23.330;2023-11-21T02:16:25;39.33;;;14.80;;
46561;SDS011;32289;42.688;23.330;2023-11-21T02:20:07;28.15;;;12.68;;
46561;SDS011;32289;42.688;23.330;2023-11-21T02:23:51;34.55;;;14.65;;
46561;SDS011;32289;42.688;23.330;2023-11-21T02:27:31;29.33;;;12.88;;
46561;SDS011;32289;42.688;23.330;2023-11-21T02:31:12;30.38;;;13.48;;
46561;SDS011;32289;42.688;23.330;2023-11-21T02:34:53;36.00;;;13.85;;
46561;SDS011;32289;42.688;23.330;2023-11-21T02:38:35;31.73;;;14.65;;
46561;SDS011;32289;42.688;23.330;2023-11-21T02:42:16;34.22;;;14.45;;
46561;SDS011;32289;42.688;23.330;2023-11-21T02:45:57;25.05;;;11.98;;
46561;SDS011;32289;42.688;23.330;2023-11-21T02:49:37;29.60;;;13.98;;
46561;SDS011;32289;42.688;23.330;2023-11-21T02:53:18;29.65;;;13.48;;
46561;SDS011;32289;42.688;23.330;2023-11-21T02:56:59;31.60;;;14.07;;
46561;SDS011;32289;42.688;23.330;2023-11-21T03:00:39;33.45;;;13.60;;
46561;SDS011;32289;42.688;23.330;2023-11-21T03:04:22;36.00;;;14.07;;
46561;SDS011;32289;42.688;23.330;2023-11-21T03:08:02;30.15;;;12.43;;
46561;SDS011;32289;42.688;23.330;2023-11-21T03:11:43;26.85;;;12.27;;
46561;SDS011;32289;42.688;23.330;2023-11-21T03:15:24;30.45;;;13.43;;
46561;SDS011;32289;42.688;23.330;2023-11-21T03:19:04;35.15;;;15.05;;
46561;SDS011;32289;42.688;23.330;2023-11-21T03:22:45;34.40;;;13.52;;
46561;SDS011;32289;42.688;23.330;2023-11-21T03:26:26;29.85;;;13.40;;
46561;SDS011;32289;42.688;23.330;2023-11-21T03:30:07;30.52;;;12.60;;
46561;SDS011;32289;42.688;23.330;2023-11-21T03:33:49;32.28;;;12.07;;
46561;SDS011;32289;42.688;23.330;2023-11-21T03:37:29;32.55;;;12.25;;
46561;SDS011;32289;42.688;23.330;2023-11-21T03:41:10;30.20;;;12.65;;
46561;SDS011;32289;42.688;23.330;2023-11-21T03:44:51;31.60;;;12.45;;
46561;SDS011;32289;42.688;23.330;2023-11-21T03:48:32;33.35;;;12.38;;
46561;SDS011;32289;42.688;23.330;2023-11-21T03:52:13;31.30;;;11.23;;
46561;SDS011;32289;42.688;23.330;2023-11-21T03:55:53;32.53;;;12.60;;
46561;SDS011;32289;42.688;23.330;2023-11-21T03:59:34;28.20;;;11.13;;
46561;SDS011;32289;42.688;23.330;2023-11-21T04:03:15;24.83;;;10.93;;
46561;SDS011;32289;42.688;23.330;2023-11-21T04:06:56;27.45;;;12.10;;
46561;SDS011;32289;42.688;23.330;2023-11-21T04:10:36;23.55;;;11.13;;
46561;SDS011;32289;42.688;23.330;2023-11-21T04:14:19;26.60;;;12.27;;
46561;SDS011;32289;42.688;23.330;2023-11-21T04:18:00;28.35;;;13.13;;
46561;SDS011;32289;42.688;23.330;2023-11-21T04:21:41;30.30;;;12.13;;
46561;SDS011;32289;42.688;23.330;2023-11-21T04:25:22;37.10;;;12.75;;
46561;SDS011;32289;42.688;23.330;2023-11-21T04:29:03;23.25;;;10.98;;
46561;SDS011;32289;42.688;23.330;2023-11-21T04:32:44;27.90;;;12.15;;
46561;SDS011;32289;42.688;23.330;2023-11-21T04:36:25;29.90;;;13.32;;
46561;SDS011;32289;42.688;23.330;2023-11-21T04:40:06;25.20;;;11.95;;
46561;SDS011;32289;42.688;23.330;2023-11-21T04:43:47;31.23;;;12.20;;
46561;SDS011;32289;42.688;23.330;2023-11-21T04:47:28;31.13;;;12.30;;
46561;SDS011;32289;42.688;23.330;2023-11-21T04:51:09;26.23;;;12.00;;
46561;SDS011;32289;42.688;23.330;2023-11-21T04:54:51;28.33;;;12.05;;
46561;SDS011;32289;42.688;23.330;2023-11-21T04:58:34;31.95;;;12.45;;
46561;SDS011;32289;42.688;23.330;2023-11-21T05:02:15;25.77;;;10.93;;
46561;SDS011;32289;42.688;23.330;2023-11-21T05:05:56;32.17;;;12.48;;
46561;SDS011;32289;42.688;23.330;2023-11-21T05:09:40;26.15;;;11.98;;
46561;SDS011;32289;42.688;23.330;2023-11-21T05:13:24;28.60;;;12.27;;
46561;SDS011;32289;42.688;23.330;2023-11-21T05:17:07;24.15;;;9.98;;
46561;SDS011;32289;42.688;23.330;2023-11-21T05:20:48;25.23;;;10.63;;
46561;SDS011;32289;42.688;23.330;2023-11-21T05:24:29;29.55;;;11.43;;
46561;SDS011;32289;42.688;23.330;2023-11-21T05:28:09;29.52;;;11.45;;
46561;SDS011;32289;42.688;23.330;2023-11-21T05:31:50;27.15;;;11.25;;
46561;SDS011;32289;42.688;23.330;2023-11-21T05:35:31;28.77;;;11.60;;
46561;SDS011;32289;42.688;23.330;2023-11-21T05:39:11;28.38;;;12.90;;
46561;SDS011;32289;42.688;23.330;2023-11-21T05:42:53;24.42;;;13.23;;
46561;SDS011;32289;42.688;23.330;2023-11-21T05:46:33;27.42;;;13.93;;
46561;SDS011;32289;42.688;23.330;2023-11-21T05:50:15;38.17;;;12.73;;
46561;SDS011;32289;42.688;23.330;2023-11-21T05:53:59;26.20;;;11.77;;
46561;SDS011;32289;42.688;23.330;2023-11-21T05:57:40;31.13;;;12.02;;
46561;SDS011;32289;42.688;23.330;2023-11-21T06:01:23;30.17;;;11.93;;
46561;SDS011;32289;42.688;23.330;2023-11-21T06:05:04;27.42;;;13.05;;
46561;SDS011;32289;42.688;23.330;2023-11-21T06:08:46;34.67;;;13.45;;
46561;SDS011;32289;42.688;23.330;2023-11-21T06:12:27;33.97;;;13.82;;
46561;SDS011;32289;42.688;23.330;2023-11-21T06:16:07;38.42;;;16.33;;
46561;SDS011;32289;42.688;23.330;2023-11-21T06:19:48;40.08;;;16.58;;
46561;SDS011;32289;42.688;23.330;2023-11-21T06:23:29;32.45;;;14.05;;
46561;SDS011;32289;42.688;23.330;2023-11-21T06:27:11;35.67;;;15.40;;
46561;SDS011;32289;42.688;23.330;2023-11-21T06:30:51;40.20;;;14.55;;
46561;SDS011;32289;42.688;23.330;2023-11-21T06:34:33;33.38;;;13.50;;
46561;SDS011;32289;42.688;23.330;2023-11-21T06:38:13;35.25;;;14.98;;
46561;SDS011;32289;42.688;23.330;2023-11-21T06:41:54;32.17;;;15.15;;
46561;SDS011;32289;42.688;23.330;2023-11-21T06:45:35;42.45;;;14.95;;
46561;SDS011;32289;42.688;23.330;2023-11-21T06:49:16;37.72;;;14.77;;
46561;SDS011;32289;42.688;23.330;2023-11-21T06:52:56;34.55;;;14.18;;
46561;SDS011;32289;42.688;23.330;2023-11-21T06:56:37;24.52;;;12.20;;
46561;SDS011;32289;42.688;23.330;2023-11-21T07:00:19;35.90;;;13.35;;
46561;SDS011;32289;42.688;23.330;2023-11-21T07:03:59;26.63;;;13.30;;
46561;SDS011;32289;42.688;23.330;2023-11-21T07:07:40;29.30;;;12.68;;
46561;SDS011;32289;42.688;23.330;2023-11-21T07:11:21;28.98;;;14.07;;
46561;SDS011;32289;42.688;23.330;2023-11-21T07:15:03;28.65;;;11.63;;
46561;SDS011;32289;42.688;23.330;2023-11-21T07:18:45;23.38;;;11.40;;
46561;SDS011;32289;42.688;23.330;2023-11-21T07:22:26;18.77;;;9.52;;
46561;SDS011;32289;42.688;23.330;2023-11-21T07:26:07;26.00;;;11.80;;
46561;SDS011;32289;42.688;23.330;2023-11-21T07:29:49;25.17;;;10.82;;
46561;SDS011;32289;42.688;23.330;2023-11-21T07:33:31;40.63;;;15.15;;
46561;SDS011;32289;42.688;23.330;2023-11-21T07:37:12;22.90;;;12.25;;
46561;SDS011;32289;42.688;23.330;2023-11-21T07:40:52;26.77;;;9.95;;
46561;SDS011;32289;42.688;23.330;2023-11-21T07:44:33;26.73;;;10.50;;
46561;SDS011;32289;42.688;23.330;2023-11-21T07:48:14;22.80;;;10.57;;
46561;SDS011;32289;42.688;23.330;2023-11-21T07:51:54;24.02;;;10.70;;
46561;SDS011;32289;42.688;23.330;2023-11-21T07:55:35;22.17;;;10.10;;
46561;SDS011;32289;42.688;23.330;2023-11-21T07:59:16;24.60;;;9.57;;
46561;SDS011;32289;42.688;23.330;2023-11-21T08:02:58;19.75;;;9.23;;
46561;SDS011;32289;42.688;23.330;2023-11-21T08:06:39;19.23;;;8.27;;
46561;SDS011;32289;42.688;23.330;2023-11-21T08:10:21;22.25;;;9.55;;
46561;SDS011;32289;42.688;23.330;2023-11-21T08:14:02;17.02;;;8.63;;
46561;SDS011;32289;42.688;23.330;2023-11-21T08:17:43;19.33;;;9.60;;
46561;SDS011;32289;42.688;23.330;2023-11-21T08:21:23;20.20;;;8.88;;
46561;SDS011;32289;42.688;23.330;2023-11-21T08:25:04;22.38;;;8.75;;
46561;SDS011;32289;42.688;23.330;2023-11-21T08:28:45;21.33;;;9.10;;
46561;SDS011;32289;42.688;23.330;2023-11-21T08:32:27;24.83;;;7.95;;
46561;SDS011;32289;42.688;23.330;2023-11-21T08:36:08;19.85;;;8.32;;
46561;SDS011;32289;42.688;23.330;2023-11-21T08:39:51;16.88;;;8.80;;
46561;SDS011;32289;42.688;23.330;2023-11-21T08:43:36;17.20;;;9.48;;
46561;SDS011;32289;42.688;23.330;2023-11-21T08:47:19;21.88;;;9.07;;
46561;SDS011;32289;42.688;23.330;2023-11-21T08:51:00;36.80;;;13.32;;
46561;SDS011;32289;42.688;23.330;2023-11-21T08:54:41;31.15;;;14.20;;
46561;SDS011;32289;42.688;23.330;2023-11-21T08:58:24;39.53;;;15.20;;
46561;SDS011;32289;42.688;23.330;2023-11-21T09:02:05;29.42;;;16.02;;
46561;SDS011;32289;42.688;23.330;2023-11-21T09:05:46;30.63;;;14.60;;
46561;SDS011;32289;42.688;23.330;2023-11-21T09:09:26;27.73;;;14.25;;
46561;SDS011;32289;42.688;23.330;2023-11-21T09:13:07;28.17;;;15.30;;
46561;SDS011;32289;42.688;23.330;2023-11-21T09:16:49;23.85;;;14.18;;
46561;SDS011;32289;42.688;23.330;2023-11-21T09:20:30;29.83;;;13.70;;
46561;SDS011;32289;42.688;23.330;2023-11-21T09:24:11;33.92;;;16.88;;
46561;SDS011;32289;42.688;23.330;2023-11-21T09:27:52;33.20;;;17.52;;
46561;SDS011;32289;42.688;23.330;2023-11-21T09:31:33;28.63;;;17.25;;
46561;SDS011;32289;42.688;23.330;2023-11-21T09:35:13;45.83;;;18.88;;
46561;SDS011;32289;42.688;23.330;2023-11-21T09:38:54;51.83;;;19.42;;
46561;SDS011;32289;42.688;23.330;2023-11-21T09:42:38;39.95;;;19.63;;
46561;SDS011;32289;42.688;23.330;2023-11-21T09:46:23;40.03;;;19.67;;
46561;SDS011;32289;42.688;23.330;2023-11-21T09:50:08;50.40;;;21.05;;
46561;SDS011;32289;42.688;23.330;2023-11-21T09:53:50;39.33;;;21.65;;
46561;SDS011;32289;42.688;23.330;2023-11-21T09:57:34;42.75;;;21.13;;
46561;SDS011;32289;42.688;23.330;2023-11-21T10:01:14;42.20;;;21.70;;
46561;SDS011;32289;42.688;23.330;2023-11-21T10:04:58;34.70;;;20.65;;
46561;SDS011;32289;42.688;23.330;2023-11-21T10:08:41;43.20;;;20.60;;
46561;SDS011;32289;42.688;23.330;2023-11-21T10:12:22;34.85;;;18.60;;
46561;SDS011;32289;42.688;23.330;2023-11-21T10:16:04;31.77;;;19.52;;
46561;SDS011;32289;42.688;23.330;2023-11-21T10:19:47;36.13;;;19.10;;
46561;SDS011;32289;42.688;23.330;2023-11-21T10:23:28;32.20;;;18.00;;
46561;SDS011;32289;42.688;23.330;2023-11-21T10:27:09;37.60;;;18.88;;
46561;SDS011;32289;42.688;23.330;2023-11-21T10:30:51;26.33;;;16.17;;
46561;SDS011;32289;42.688;23.330;2023-11-21T10:34:32;24.23;;;14.52;;
46561;SDS011;32289;42.688;23.330;2023-11-21T10:38:14;24.75;;;14.35;;
46561;SDS011;32289;42.688;23.330;2023-11-21T10:41:54;29.73;;;16.23;;
46561;SDS011;32289;42.688;23.330;2023-11-21T10:45:39;26.80;;;14.70;;
46561;SDS011;32289;42.688;23.330;2023-11-21T10:49:20;25.33;;;13.45;;
46561;SDS011;32289;42.688;23.330;2023-11-21T10:53:02;36.05;;;14.73;;
46561;SDS011;32289;42.688;23.330;2023-11-21T10:56:44;26.25;;;12.80;;
46561;SDS011;32289;42.688;23.330;2023-11-21T11:00:26;27.88;;;12.52;;
46561;SDS011;32289;42.688;23.330;2023-11-21T11:04:08;29.15;;;12.80;;
46561;SDS011;32289;42.688;23.330;2023-11-21T11:08:04;33.30;;;14.20;;
46561;SDS011;32289;42.688;23.330;2023-11-21T11:11:46;39.38;;;18.13;;
46561;SDS011;32289;42.688;23.330;2023-11-21T11:15:27;37.00;;;15.05;;
46561;SDS011;32289;42.688;23.330;2023-11-21T11:19:08;24.27;;;13.77;;
46561;SDS011;32289;42.688;23.330;2023-11-21T11:27:08;24.85;;;13.57;;
46561;SDS011;32289;42.688;23.330;2023-11-21T11:35:24;23.48;;;12.13;;
46561;SDS011;32289;42.688;23.330;2023-11-21T11:39:27;30.48;;;13.43;;
46561;SDS011;32289;42.688;23.330;2023-11-21T11:43:11;33.85;;;14.88;;
46561;SDS011;32289;42.688;23.330;2023-11-21T11:46:52;29.10;;;11.35;;
46561;SDS011;32289;42.688;23.330;2023-11-21T11:50:33;28.15;;;13.77;;
46561;SDS011;32289;42.688;23.330;2023-11-21T11:54:14;25.50;;;11.88;;
46561;SDS011;32289;42.688;23.330;2023-11-21T11:57:57;25.23;;;12.13;;
46561;SDS011;32289;42.688;23.330;2023-11-21T12:01:39;30.33;;;13.32;;
46561;SDS011;32289;42.688;23.330;2023-11-21T12:05:26;28.15;;;13.15;;
46561;SDS011;32289;42.688;23.330;2023-11-21T12:09:17;28.23;;;14.27;;
46561;SDS011;32289;42.688;23.330;2023-11-21T12:13:03;29.48;;;14.43;;
46561;SDS011;32289;42.688;23.330;2023-11-21T12:16:47;31.05;;;13.95;;
46561;SDS011;32289;42.688;23.330;2023-11-21T12:20:30;31.25;;;14.35;;
46561;SDS011;32289;42.688;23.330;2023-11-21T12:24:11;28.63;;;14.48;;
46561;SDS011;32289;42.688;23.330;2023-11-21T12:27:53;39.42;;;16.30;;
46561;SDS011;32289;42.688;23.330;2023-11-21T12:31:35;33.45;;;16.42;;
46561;SDS011;32289;42.688;23.330;2023-11-21T12:35:16;32.67;;;15.05;;
46561;SDS011;32289;42.688;23.330;2023-11-21T12:38:59;35.58;;;14.95;;
46561;SDS011;32289;42.688;23.330;2023-11-21T12:43:01;34.33;;;14.65;;
46561;SDS011;32289;42.688;23.330;2023-11-21T12:46:44;32.10;;;14.98;;
46561;SDS011;32289;42.688;23.330;2023-11-21T12:50:26;34.55;;;15.25;;
46561;SDS011;32289;42.688;23.330;2023-11-21T12:54:12;35.97;;;15.48;;
46561;SDS011;32289;42.688;23.330;2023-11-21T12:57:53;26.55;;;13.35;;
46561;SDS011;32289;42.688;23.330;2023-11-21T13:01:35;33.10;;;13.75;;
46561;SDS011;32289;42.688;23.330;2023-11-21T13:05:23;28.02;;;12.57;;
46561;SDS011;32289;42.688;23.330;2023-11-21T13:09:04;26.40;;;12.43;;
46561;SDS011;32289;42.688;23.330;2023-11-21T13:12:48;26.52;;;12.95;;
46561;SDS011;32289;42.688;23.330;2023-11-21T13:16:31;29.70;;;13.93;;
46561;SDS011;32289;42.688;23.330;2023-11-21T13:20:13;30.50;;;13.25;;
46561;SDS011;32289;42.688;23.330;2023-11-21T13:23:56;25.23;;;13.40;;
46561;SDS011;32289;42.688;23.330;2023-11-21T13:27:37;23.05;;;12.35;;
46561;SDS011;32289;42.688;23.330;2023-11-21T13:31:18;31.92;;;15.57;;
46561;SDS011;32289;42.688;23.330;2023-11-21T13:35:05;29.23;;;14.30;;
46561;SDS011;32289;42.688;23.330;2023-11-21T13:38:51;32.13;;;15.15;;
46561;SDS011;32289;42.688;23.330;2023-11-21T13:42:35;30.00;;;14.27;;
46561;SDS011;32289;42.688;23.330;2023-11-21T13:46:15;28.23;;;15.73;;
46561;SDS011;32289;42.688;23.330;2023-11-21T13:49:57;28.45;;;13.93;;
46561;SDS011;32289;42.688;23.330;2023-11-21T13:53:38;31.60;;;15.43;;
46561;SDS011;32289;42.688;23.330;2023-11-21T13:57:19;29.20;;;14.95;;
46561;SDS011;32289;42.688;23.330;2023-11-21T14:01:00;38.97;;;15.70;;
46561;SDS011;32289;42.688;23.330;2023-11-21T14:04:45;34.47;;;14.10;;
46561;SDS011;32289;42.688;23.330;2023-11-21T14:08:38;36.13;;;14.43;;
46561;SDS011;32289;42.688;23.330;2023-11-21T14:12:19;27.92;;;14.93;;
46561;SDS011;32289;42.688;23.330;2023-11-21T14:16:01;35.72;;;14.13;;
46561;SDS011;32289;42.688;23.330;2023-11-21T14:19:42;54.88;;;18.98;;
46561;SDS011;32289;42.688;23.330;2023-11-21T14:23:23;41.72;;;16.90;;
46561;SDS011;32289;42.688;23.330;2023-11-21T14:27:04;41.40;;;16.48;;
46561;SDS011;32289;42.688;23.330;2023-11-21T14:30:48;35.70;;;16.42;;
46561;SDS011;32289;42.688;23.330;2023-11-21T14:34:28;51.17;;;22.73;;
46561;SDS011;32289;42.688;23.330;2023-11-21T14:38:09;31.17;;;16.27;;
46561;SDS011;32289;42.688;23.330;2023-11-21T14:41:50;32.03;;;15.43;;
46561;SDS011;32289;42.688;23.330;2023-11-21T14:45:33;39.85;;;15.75;;
46561;SDS011;32289;42.688;23.330;2023-11-21T14:49:14;36.25;;;16.50;;
46561;SDS011;32289;42.688;23.330;2023-11-21T14:53:02;34.17;;;16.55;;
46561;SDS011;32289;42.688;23.330;2023-11-21T14:56:46;30.83;;;15.27;;
46561;SDS011;32289;42.688;23.330;2023-11-21T15:00:27;35.72;;;16.02;;
46561;SDS011;32289;42.688;23.330;2023-11-21T15:04:13;32.78;;;15.02;;
46561;SDS011;32289;42.688;23.330;2023-11-21T15:08:12;45.63;;;16.45;;
46561;SDS011;32289;42.688;23.330;2023-11-21T15:12:07;33.95;;;15.80;;
46561;SDS011;32289;42.688;23.330;2023-11-21T15:15:55;33.42;;;16.05;;
46561;SDS011;32289;42.688;23.330;2023-11-21T15:19:35;39.63;;;15.55;;
46561;SDS011;32289;42.688;23.330;2023-11-21T15:23:16;33.13;;;15.55;;
46561;SDS011;32289;42.688;23.330;2023-11-21T15:26:58;36.30;;;16.35;;
46561;SDS011;32289;42.688;23.330;2023-11-21T15:35:17;32.95;;;17.10;;
46561;SDS011;32289;42.688;23.330;2023-11-21T15:38:57;38.30;;;16.83;;
46561;SDS011;32289;42.688;23.330;2023-11-21T15:42:38;36.50;;;17.85;;
46561;SDS011;32289;42.688;23.330;2023-11-21T15:46:19;36.20;;;17.75;;
46561;SDS011;32289;42.688;23.330;2023-11-21T15:50:00;40.55;;;19.95;;
46561;SDS011;32289;42.688;23.330;2023-11-21T15:53:40;45.38;;;22.25;;
46561;SDS011;32289;42.688;23.330;2023-11-21T15:57:21;57.85;;;26.08;;
46561;SDS011;32289;42.688;23.330;2023-11-21T16:01:03;52.78;;;23.70;;
46561;SDS011;32289;42.688;23.330;2023-11-21T16:04:48;55.15;;;23.90;;
46561;SDS011;32289;42.688;23.330;2023-11-21T16:08:29;47.42;;;21.95;;
46561;SDS011;32289;42.688;23.330;2023-11-21T16:12:10;49.10;;;22.15;;
46561;SDS011;32289;42.688;23.330;2023-11-21T16:15:52;48.85;;;23.00;;
46561;SDS011;32289;42.688;23.330;2023-11-21T16:19:34;42.53;;;20.33;;
46561;SDS011;32289;42.688;23.330;2023-11-21T16:23:15;41.55;;;19.40;;
46561;SDS011;32289;42.688;23.330;2023-11-21T16:26:57;48.78;;;24.35;;
46561;SDS011;32289;42.688;23.330;2023-11-21T16:30:38;48.17;;;21.48;;
46561;SDS011;32289;42.688;23.330;2023-11-21T16:34:20;53.42;;;22.92;;
46561;SDS011;32289;42.688;23.330;2023-11-21T16:38:01;51.15;;;22.73;;
46561;SDS011;32289;42.688;23.330;2023-11-21T16:41:44;52.75;;;21.23;;
46561;SDS011;32289;42.688;23.330;2023-11-21T16:45:25;52.58;;;22.30;;
46561;SDS011;32289;42.688;23.330;2023-11-21T16:49:09;55.15;;;20.48;;
46561;SDS011;32289;42.688;23.330;2023-11-21T16:52:52;47.35;;;21.05;;
46561;SDS011;32289;42.688;23.330;2023-11-21T16:56:32;46.42;;;22.27;;
46561;SDS011;32289;42.688;23.330;2023-11-21T17:00:13;39.90;;;21.00;;
46561;SDS011;32289;42.688;23.330;2023-11-21T17:03:56;46.60;;;21.75;;
46561;SDS011;32289;42.688;23.330;2023-11-21T17:07:45;56.95;;;26.13;;
46561;SDS011;32289;42.688;23.330;2023-11-21T17:11:26;42.55;;;20.35;;
46561;SDS011;32289;42.688;23.330;2023-11-21T17:15:08;46.22;;;19.35;;
46561;SDS011;32289;42.688;23.330;2023-11-21T17:18:53;41.67;;;19.15;;
46561;SDS011;32289;42.688;23.330;2023-11-21T17:22:34;40.42;;;19.85;;
46561;SDS011;32289;42.688;23.330;2023-11-21T17:26:15;41.53;;;17.98;;
46561;SDS011;32289;42.688;23.330;2023-11-21T17:29:57;45.50;;;19.75;;
46561;SDS011;32289;42.688;23.330;2023-11-21T17:33:38;43.03;;;19.33;;
46561;SDS011;32289;42.688;23.330;2023-11-21T17:37:22;36.50;;;17.35;;
46561;SDS011;32289;42.688;23.330;2023-11-21T17:41:03;50.88;;;20.55;;
46561;SDS011;32289;42.688;23.330;2023-11-21T17:44:44;47.08;;;21.38;;
46561;SDS011;32289;42.688;23.330;2023-11-21T17:48:25;52.97;;;21.75;;
46561;SDS011;32289;42.688;23.330;2023-11-21T17:52:11;58.53;;;24.00;;
46561;SDS011;32289;42.688;23.330;2023-11-21T17:55:53;55.65;;;23.83;;
46561;SDS011;32289;42.688;23.330;2023-11-21T17:59:39;58.50;;;24.05;;
46561;SDS011;32289;42.688;23.330;2023-11-21T18:03:20;58.10;;;23.20;;
46561;SDS011;32289;42.688;23.330;2023-11-21T18:07:01;51.08;;;25.45;;
46561;SDS011;32289;42.688;23.330;2023-11-21T18:10:45;58.47;;;24.13;;
46561;SDS011;32289;42.688;23.330;2023-11-21T18:14:27;65.57;;;27.95;;
46561;SDS011;32289;42.688;23.330;2023-11-21T18:18:09;53.92;;;25.15;;
46561;SDS011;32289;42.688;23.330;2023-11-21T18:21:50;58.58;;;25.13;;
46561;SDS011;32289;42.688;23.330;2023-11-21T18:25:31;64.40;;;27.20;;
46561;SDS011;32289;42.688;23.330;2023-11-21T18:29:11;61.97;;;26.10;;
46561;SDS011;32289;42.688;23.330;2023-11-21T18:32:57;62.25;;;24.70;;
46561;SDS011;32289;42.688;23.330;2023-11-21T18:36:39;65.13;;;27.95;;
46561;SDS011;32289;42.688;23.330;2023-11-21T18:40:23;72.90;;;32.15;;
46561;SDS011;32289;42.688;23.330;2023-11-21T18:44:04;58.65;;;27.25;;
46561;SDS011;32289;42.688;23.330;2023-11-21T18:47:45;58.50;;;27.48;;
46561;SDS011;32289;42.688;23.330;2023-11-21T18:51:25;62.30;;;29.83;;
46561;SDS011;32289;42.688;23.330;2023-11-21T18:55:06;67.72;;;26.42;;
46561;SDS011;32289;42.688;23.330;2023-11-21T18:58:47;56.90;;;26.25;;
46561;SDS011;32289;42.688;23.330;2023-11-21T19:02:28;61.83;;;26.58;;
46561;SDS011;32289;42.688;23.330;2023-11-21T19:06:09;67.55;;;29.88;;
46561;SDS011;32289;42.688;23.330;2023-11-21T19:09:51;55.47;;;26.48;;
46561;SDS011;32289;42.688;23.330;2023-11-21T19:13:33;60.85;;;25.77;;
46561;SDS011;32289;42.688;23.330;2023-11-21T19:17:13;49.80;;;24.33;;
46561;SDS011;32289;42.688;23.330;2023-11-21T19:20:54;52.97;;;24.27;;
46561;SDS011;32289;42.688;23.330;2023-11-21T19:24:35;66.35;;;25.30;;
46561;SDS011;32289;42.688;23.330;2023-11-21T19:28:16;52.53;;;25.73;;
46561;SDS011;32289;42.688;23.330;2023-11-21T19:31:56;56.05;;;23.95;;
46561;SDS011;32289;42.688;23.330;2023-11-21T19:35:37;51.65;;;22.55;;
46561;SDS011;32289;42.688;23.330;2023-11-21T19:39:18;57.50;;;23.40;;
46561;SDS011;32289;42.688;23.330;2023-11-21T19:42:59;50.20;;;23.65;;
46561;SDS011;32289;42.688;23.330;2023-11-21T19:46:40;66.60;;;29.70;;
46561;SDS011;32289;42.688;23.330;2023-11-21T19:50:21;65.70;;;28.75;;
46561;SDS011;32289;42.688;23.330;2023-11-21T19:54:02;73.78;;;31.75;;
46561;SDS011;32289;42.688;23.330;2023-11-21T19:57:43;73.32;;;31.90;;
46561;SDS011;32289;42.688;23.330;2023-11-21T20:01:23;73.05;;;34.38;;
46561;SDS011;32289;42.688;23.330;2023-11-21T20:05:05;69.45;;;31.92;;
46561;SDS011;32289;42.688;23.330;2023-11-21T20:08:46;91.25;;;36.45;;
46561;SDS011;32289;42.688;23.330;2023-11-21T20:12:31;81.00;;;34.33;;
46561;SDS011;32289;42.688;23.330;2023-11-21T20:16:12;92.13;;;38.38;;
46561;SDS011;32289;42.688;23.330;2023-11-21T20:19:54;83.63;;;35.90;;
46561;SDS011;32289;42.688;23.330;2023-11-21T20:23:35;81.30;;;35.60;;
46561;SDS011;32289;42.688;23.330;2023-11-21T20:27:17;75.03;;;34.15;;
46561;SDS011;32289;42.688;23.330;2023-11-21T20:30:58;83.95;;;34.45;;
46561;SDS011;32289;42.688;23.330;2023-11-21T20:34:39;76.10;;;32.88;;
46561;SDS011;32289;42.688;23.330;2023-11-21T20:38:19;78.60;;;34.63;;
46561;SDS011;32289;42.688;23.330;2023-11-21T20:42:02;72.03;;;33.65;;
46561;SDS011;32289;42.688;23.330;2023-11-21T20:45:43;73.85;;;30.45;;
46561;SDS011;32289;42.688;23.330;2023-11-21T20:49:24;71.60;;;31.10;;
46561;SDS011;32289;42.688;23.330;2023-11-21T20:53:06;66.90;;;30.25;;
46561;SDS011;32289;42.688;23.330;2023-11-21T20:56:50;65.82;;;30.30;;
46561;SDS011;32289;42.688;23.330;2023-11-21T21:00:31;73.28;;;31.80;;
46561;SDS011;32289;42.688;23.330;2023-11-21T21:04:12;72.22;;;34.28;;
46561;SDS011;32289;42.688;23.330;2023-11-21T21:07:53;72.88;;;33.78;;
46561;SDS011;32289;42.688;23.330;2023-11-21T21:11:37;74.25;;;33.10;;
46561;SDS011;32289;42.688;23.330;2023-11-21T21:15:19;66.80;;;32.75;;
46561;SDS011;32289;42.688;23.330;2023-11-21T21:18:59;82.68;;;35.78;;
46561;SDS011;32289;42.688;23.330;2023-11-21T21:22:41;76.78;;;32.72;;
46561;SDS011;32289;42.688;23.330;2023-11-21T21:26:25;68.97;;;31.60;;
46561;SDS011;32289;42.688;23.330;2023-11-21T21:30:08;64.07;;;32.47;;
46561;SDS011;32289;42.688;23.330;2023-11-21T21:33:50;73.43;;;33.08;;
46561;SDS011;32289;42.688;23.330;2023-11-21T21:37:33;72.70;;;32.70;;